Terminal Aerodrome Forecast
Issued by NWS

Home | Current Version | Previous Version | Text Only | Print | Product List | Glossary On
Versions: 1 2 3 4 5 6 7 8 9 10 11 12 13 14 15
000
FTPQ31 PGUM 221735
TAFGUM
TAF

TAF
PTRO 221735Z 2218/2318 VRB05KT P6SM VCSH FEW016 SCT120
     FM221900 VRB05KT P6SM VCSH SCT016 BKN120
      TEMPO 2220/2224 VRB12G20KT 4SM TSRA BKN016CB=

USA.gov is the U.S. government's official web portal to all federal, state and local government web resources and services.